Time;durP1;ratioP1;P1;durP2;ratioP2;P2;SDS_P1;SDS_P2;PMS_P1;PMS_P2;Temp;Humidity;BMP_temperature;BMP_pressure;BME280_temperature;BME280_humidity;BME280_pressure;Samples;Min_cycle;Max_cycle;Signal;HPM_P1;HPM_P2
2022/08/02 00:00:38;;;;;;;4.10;2.35;;;;;;;18.67;52.29;101767.97;5096679;28;20044;-52
2022/08/02 00:03:06;;;;;;;8.35;2.22;;;;;;;18.70;52.47;101763.78;5095474;28;20036;-51
2022/08/02 00:05:34;;;;;;;4.20;2.35;;;;;;;18.76;51.96;101767.28;5094343;28;20046;-52
2022/08/02 00:08:01;;;;;;;3.08;2.03;;;;;;;18.73;52.29;101760.41;5088169;28;20032;-55
2022/08/02 00:10:29;;;;;;;5.88;2.20;;;;;;;18.74;51.95;101765.66;5090448;28;20051;-55
2022/08/02 00:12:57;;;;;;;4.75;2.13;;;;;;;18.74;52.02;101765.66;5094947;28;20526;-50
2022/08/02 00:15:25;;;;;;;4.57;2.20;;;;;;;18.78;51.82;101765.06;5096361;28;20067;-54
2022/08/02 00:17:53;;;;;;;5.95;2.30;;;;;;;18.74;51.45;101759.31;5092727;28;20508;-52
2022/08/02 00:20:20;;;;;;;6.22;2.42;;;;;;;18.65;51.52;101772.97;5095439;28;20036;-52
2022/08/02 00:22:48;;;;;;;4.10;1.83;;;;;;;18.57;52.03;101770.88;5096107;28;20040;-50
2022/08/02 00:25:16;;;;;;;6.03;1.98;;;;;;;18.58;51.88;101772.50;5093151;28;20038;-51
2022/08/02 00:27:43;;;;;;;4.03;1.95;;;;;;;18.59;51.49;101776.09;5089468;28;20039;-52
2022/08/02 00:30:11;;;;;;;6.15;2.13;;;;;;;18.53;51.44;101770.66;5095742;28;20036;-51
2022/08/02 00:32:39;;;;;;;4.32;2.35;;;;;;;18.48;51.90;101764.38;5083781;28;20068;-50
2022/08/02 00:35:07;;;;;;;3.80;2.10;;;;;;;18.50;52.17;101764.91;5095669;28;20041;-50
2022/08/02 00:37:39;;;;;;;4.10;2.00;;;;;;;18.54;52.02;101765.94;5094842;28;20040;-49
2022/08/02 00:40:08;;;;;;;4.70;1.92;;;;;;;18.55;52.01;101762.09;5096518;28;20036;-54
2022/08/02 00:42:36;;;;;;;6.75;2.40;;;;;;;18.58;51.81;101763.41;5084624;28;20040;-52
2022/08/02 00:45:05;;;;;;;7.53;2.35;;;;;;;18.52;51.63;101762.69;5093311;28;20036;-51
2022/08/02 00:47:32;;;;;;;5.15;2.00;;;;;;;18.41;51.75;101756.47;5096210;28;20040;-52
2022/08/02 00:50:00;;;;;;;7.13;2.45;;;;;;;18.36;52.32;101758.50;5092537;28;20036;-48
2022/08/02 00:52:28;;;;;;;7.72;2.65;;;;;;;18.36;52.33;101750.22;5091426;28;20048;-56
2022/08/02 00:54:55;;;;;;;5.88;2.72;;;;;;;18.37;52.13;101743.56;5094800;28;20037;-54
2022/08/02 00:57:23;;;;;;;5.38;2.42;;;;;;;18.35;52.26;101737.53;5084171;28;20032;-55
2022/08/02 00:59:51;;;;;;;6.10;2.65;;;;;;;18.31;52.42;101740.06;5091946;28;20048;-54
2022/08/02 01:02:18;;;;;;;7.80;2.35;;;;;;;18.30;52.63;101750.31;5095400;28;20051;-53
2022/08/02 01:04:46;;;;;;;7.28;2.78;;;;;;;18.28;52.76;101741.50;5094112;28;20044;-55
2022/08/02 01:07:14;;;;;;;7.45;2.60;;;;;;;18.30;52.74;101738.41;5095389;28;20070;-50
2022/08/02 01:09:43;;;;;;;6.28;2.30;;;;;;;18.28;53.19;101730.47;5077443;28;20479;-49
2022/08/02 01:12:11;;;;;;;5.50;2.45;;;;;;;18.26;53.42;101729.94;5087994;28;20052;-51
2022/08/02 01:14:45;;;;;;;8.13;2.83;;;;;;;18.20;53.53;101736.63;5094290;28;20040;-51
2022/08/02 01:17:52;;;;;;;6.22;2.40;;;;;;;18.21;53.89;101737.47;5092594;28;20047;-54
2022/08/02 01:20:22;;;;;;;6.93;2.40;;;;;;;18.22;54.03;101731.63;5052445;28;20056;-48
2022/08/02 01:23:28;;;;;;;5.40;2.38;;;;;;;18.27;53.91;101730.75;5081809;28;20058;-55
2022/08/02 01:26:18;;;;;;;6.07;2.40;;;;;;;18.30;53.55;101731.00;5042671;28;20051;-55
2022/08/02 01:29:09;;;;;;;8.32;2.78;;;;;;;18.28;53.96;101738.75;5092214;28;20032;-58
2022/08/02 01:31:46;;;;;;;6.95;2.55;;;;;;;18.24;54.09;101737.69;5080371;28;20040;-58
2022/08/02 01:34:38;;;;;;;5.47;2.20;;;;;;;18.27;54.29;101739.03;5087836;28;20067;-55
2022/08/02 01:37:22;;;;;;;6.78;2.38;;;;;;;18.31;54.28;101740.91;5095730;28;20051;-55
2022/08/02 01:40:02;;;;;;;6.97;2.38;;;;;;;18.36;54.14;101730.91;5080603;28;20058;-54
2022/08/02 01:42:31;;;;;;;6.10;2.47;;;;;;;18.37;54.07;101721.50;5093143;28;20042;-53
2022/08/02 01:44:59;;;;;;;6.82;2.22;;;;;;;18.35;54.21;101732.00;5093664;28;20032;-52
2022/08/02 01:47:36;;;;;;;7.18;2.05;;;;;;;18.33;54.50;101728.72;5093409;28;20483;-55
2022/08/02 01:50:06;;;;;;;7.78;2.00;;;;;;;18.30;54.63;101722.72;5083426;28;20043;-56
2022/08/02 01:52:36;;;;;;;6.00;2.13;;;;;;;18.28;54.93;101719.44;5093021;28;20070;-51
2022/08/02 01:55:13;;;;;;;6.65;2.50;;;;;;;18.28;55.13;101724.94;5090790;28;20408;-51
2022/08/02 01:57:53;;;;;;;7.45;2.42;;;;;;;18.26;54.99;101710.63;5093837;28;20068;-51
2022/08/02 02:00:23;;;;;;;4.72;2.10;;;;;;;18.17;55.47;101712.41;5091265;28;20040;-50
2022/08/02 02:02:53;;;;;;;7.15;2.58;;;;;;;18.16;55.59;101716.28;5068744;28;20033;-51
2022/08/02 02:05:24;;;;;;;7.90;2.20;;;;;;;18.12;55.66;101709.72;5074565;28;20490;-53
2022/08/02 02:07:57;;;;;;;5.20;2.10;;;;;;;18.13;55.83;101711.34;5090138;28;20513;-53
2022/08/02 02:10:30;;;;;;;6.25;2.30;;;;;;;18.14;55.67;101709.44;5086136;28;20056;-55
2022/08/02 02:13:02;;;;;;;5.88;2.38;;;;;;;18.16;55.55;101715.44;5093363;28;20056;-53
2022/08/02 02:15:31;;;;;;;5.05;2.20;;;;;;;18.21;55.80;101713.47;5092771;28;20032;-54
2022/08/02 02:18:00;;;;;;;4.60;1.98;;;;;;;18.23;55.42;101700.19;5091470;28;20067;-52
2022/08/02 02:20:41;;;;;;;8.40;2.53;;;;;;;18.24;55.68;101698.25;5086703;28;20051;-54
2022/08/02 02:23:09;;;;;;;6.60;2.10;;;;;;;18.23;55.61;101694.69;5091290;28;20035;-50
2022/08/02 02:25:41;;;;;;;8.43;2.88;;;;;;;18.24;55.71;101685.28;5063200;28;20041;-49
2022/08/02 02:28:28;;;;;;;6.78;2.38;;;;;;;18.23;55.68;101688.31;5079711;28;20061;-52
2022/08/02 02:31:20;;;;;;;5.50;2.38;;;;;;;18.23;55.97;101689.16;5088155;28;20036;-54
2022/08/02 02:34:00;;;;;;;6.38;2.20;;;;;;;18.22;55.82;101681.97;5092391;28;20047;-50
2022/08/02 02:36:29;;;;;;;5.78;2.42;;;;;;;18.23;56.00;101680.88;5076586;28;20050;-51
2022/08/02 02:38:58;;;;;;;9.23;2.72;;;;;;;18.19;56.34;101677.06;5091386;28;20036;-50
2022/08/02 02:41:26;;;;;;;6.15;2.50;;;;;;;18.15;56.45;101681.53;5074817;28;20044;-52
2022/08/02 02:43:59;;;;;;;6.55;2.40;;;;;;;18.14;56.74;101679.09;5055893;28;20067;-54
2022/08/02 02:46:30;;;;;;;7.50;2.47;;;;;;;18.15;56.83;101676.03;5082410;28;20040;-53
2022/08/02 02:48:58;;;;;;;5.10;2.50;;;;;;;18.15;57.17;101681.53;5092953;28;20533;-54
2022/08/02 02:51:26;;;;;;;9.10;2.33;;;;;;;18.14;57.24;101674.41;5090003;28;20097;-50
2022/08/02 02:53:54;;;;;;;8.27;2.53;;;;;;;18.12;57.43;101676.63;5071134;28;20051;-49
2022/08/02 02:56:42;;;;;;;7.40;2.45;;;;;;;18.11;57.74;101680.47;5090641;28;20028;-52
2022/08/02 02:59:11;;;;;;;7.78;2.47;;;;;;;18.09;57.67;101682.75;5092183;28;20498;-50
2022/08/02 03:01:40;;;;;;;5.82;2.30;;;;;;;18.01;57.95;101669.59;5088983;28;20490;-50
2022/08/02 03:04:24;;;;;;;7.47;2.65;;;;;;;17.95;58.55;101673.56;5074691;28;20067;-51
2022/08/02 03:06:51;;;;;;;6.10;2.50;;;;;;;17.91;58.92;101675.28;5089916;28;20111;-51
2022/08/02 03:09:19;;;;;;;6.63;2.53;;;;;;;17.93;58.91;101665.59;5093218;28;20504;-49
2022/08/02 03:11:47;;;;;;;4.95;2.42;;;;;;;17.92;59.09;101660.34;5083509;28;20099;-52
2022/08/02 03:14:15;;;;;;;6.78;2.65;;;;;;;17.92;59.14;101652.94;5092231;28;20536;-54
2022/08/02 03:16:46;;;;;;;6.78;2.60;;;;;;;17.92;59.23;101663.97;5091689;28;20521;-55
2022/08/02 03:19:14;;;;;;;8.10;2.50;;;;;;;17.94;59.21;101663.63;5088675;28;20076;-54
2022/08/02 03:21:43;;;;;;;5.85;2.58;;;;;;;17.96;59.02;101661.41;5090927;28;20098;-53
2022/08/02 03:24:10;;;;;;;8.25;2.75;;;;;;;17.96;59.34;101669.69;5093277;28;20398;-51
2022/08/02 03:26:38;;;;;;;8.05;2.60;;;;;;;17.97;59.11;101663.06;5091827;28;20402;-53
2022/08/02 03:29:06;;;;;;;7.18;2.40;;;;;;;17.98;59.20;101670.22;5092241;28;20040;-54
2022/08/02 03:31:40;;;;;;;9.00;2.42;;;;;;;17.99;58.90;101666.31;5083498;28;20046;-56
2022/08/02 03:34:07;;;;;;;8.18;2.60;;;;;;;17.98;58.84;101670.22;5084814;28;20048;-53
2022/08/02 03:36:36;;;;;;;7.72;3.10;;;;;;;17.97;59.06;101663.06;5092883;28;20060;-52
2022/08/02 03:39:04;;;;;;;7.10;2.80;;;;;;;17.98;59.17;101665.50;5092977;28;20040;-54
2022/08/02 03:41:32;;;;;;;7.97;3.00;;;;;;;17.97;58.91;101661.13;5062892;28;20043;-52
2022/08/02 03:44:00;;;;;;;7.75;2.90;;;;;;;17.95;58.85;101662.53;5087314;28;20059;-53
2022/08/02 03:46:28;;;;;;;6.82;2.70;;;;;;;17.91;59.28;101655.97;5092009;28;20040;-55
2022/08/02 03:48:56;;;;;;;8.88;3.33;;;;;;;17.88;59.42;101644.41;5093243;28;20506;-49
2022/08/02 03:51:24;;;;;;;7.80;2.47;;;;;;;17.90;59.40;101646.06;5091195;28;20119;-52
2022/08/02 03:53:52;;;;;;;8.73;3.00;;;;;;;17.90;59.67;101651.59;5088126;28;20555;-54
2022/08/02 03:56:20;;;;;;;9.00;3.42;;;;;;;17.88;59.80;101651.88;5069897;28;20437;-52
2022/08/02 03:59:09;;;;;;;11.23;3.50;;;;;;;17.91;59.71;101658.72;5091784;28;20039;-52
2022/08/02 04:01:37;;;;;;;8.40;3.30;;;;;;;17.90;59.85;101659.84;5088752;28;20055;-50
2022/08/02 04:04:05;;;;;;;8.68;2.67;;;;;;;17.86;59.93;101648.59;5084217;28;20044;-57
2022/08/02 04:06:33;;;;;;;8.63;3.10;;;;;;;17.85;60.29;101646.97;5091747;28;20111;-53
2022/08/02 04:09:01;;;;;;;6.93;3.05;;;;;;;17.85;60.30;101652.47;5091554;28;20040;-55
2022/08/02 04:11:31;;;;;;;9.48;3.03;;;;;;;17.83;60.46;101647.25;5091921;28;20523;-51
2022/08/02 04:14:07;;;;;;;10.45;3.22;;;;;;;17.83;60.54;101640.91;5088279;28;20059;-51
2022/08/02 04:16:51;;;;;;;10.30;3.05;;;;;;;17.82;60.68;101645.63;5085879;28;20048;-53
2022/08/02 04:19:25;;;;;;;7.38;2.90;;;;;;;17.84;60.46;101640.59;5090143;28;20567;-52
2022/08/02 04:21:54;;;;;;;7.90;3.00;;;;;;;17.86;60.80;101651.34;5086775;28;20525;-49
2022/08/02 04:24:26;;;;;;;7.75;3.38;;;;;;;17.84;60.76;101643.38;5092676;28;20040;-51
2022/08/02 04:26:55;;;;;;;10.60;3.50;;;;;;;17.83;61.15;101652.75;5075364;28;20071;-55
2022/08/02 04:29:43;;;;;;;7.40;2.92;;;;;;;17.82;61.26;101653.03;5085838;28;20044;-50
2022/08/02 04:32:14;;;;;;;9.98;3.35;;;;;;;17.80;61.19;101647.00;5094887;28;20399;-50
2022/08/02 04:34:44;;;;;;;9.98;3.25;;;;;;;17.79;61.44;101653.63;5091368;28;20066;-50
2022/08/02 04:37:31;;;;;;;7.78;3.10;;;;;;;17.76;61.65;101655.03;5090454;28;20037;-52
2022/08/02 04:39:59;;;;;;;10.57;3.65;;;;;;;17.76;61.73;101657.78;5086828;28;20051;-51
2022/08/02 04:42:27;;;;;;;8.00;3.35;;;;;;;17.76;61.90;101663.31;5095222;28;20517;-53
2022/08/02 04:44:54;;;;;;;11.95;3.90;;;;;;;17.78;61.96;101654.75;5096199;28;20498;-53
2022/08/02 04:47:22;;;;;;;10.57;3.47;;;;;;;17.78;62.00;101660.25;5092196;28;20055;-52
2022/08/02 04:50:10;;;;;;;10.00;3.60;;;;;;;17.76;62.03;101654.22;5090548;28;20390;-48
2022/08/02 04:52:37;;;;;;;6.43;2.80;;;;;;;17.76;62.21;101652.28;5093010;28;20054;-53
2022/08/02 04:55:11;;;;;;;8.07;3.03;;;;;;;17.77;62.36;101653.09;5095985;28;20040;-56
2022/08/02 04:57:54;;;;;;;7.85;3.10;;;;;;;17.77;62.43;101653.09;5083958;28;20044;-56
2022/08/02 05:00:23;;;;;;;9.40;3.75;;;;;;;17.79;62.53;101651.69;5088461;28;20055;-49
2022/08/02 05:02:51;;;;;;;6.55;3.13;;;;;;;17.80;62.42;101652.53;5090193;28;20040;-52
2022/08/02 05:05:19;;;;;;;9.25;3.53;;;;;;;17.79;62.67;101640.66;5085446;28;20046;-51
2022/08/02 05:07:47;;;;;;;9.25;3.50;;;;;;;17.81;62.86;101635.69;5085078;28;20044;-55
2022/08/02 05:10:15;;;;;;;7.15;3.20;;;;;;;17.84;62.97;101634.28;5084669;28;20036;-54
2022/08/02 05:12:42;;;;;;;11.60;3.55;;;;;;;17.83;63.18;101633.47;5076480;28;20052;-51
2022/08/02 05:15:13;;;;;;;8.93;3.60;;;;;;;17.85;63.37;101639.50;5091845;28;20409;-50
2022/08/02 05:17:40;;;;;;;10.25;3.78;;;;;;;17.86;63.69;101634.81;5064523;28;20412;-50
2022/08/02 05:20:16;;;;;;;9.43;3.42;;;;;;;17.87;63.78;101634.53;5086246;28;20051;-54
2022/08/02 05:22:44;;;;;;;8.90;3.35;;;;;;;17.90;63.90;101643.31;5093845;28;20417;-53
2022/08/02 05:25:12;;;;;;;9.77;3.67;;;;;;;17.90;63.90;101635.84;5089987;28;20549;-51
2022/08/02 05:27:40;;;;;;;8.70;3.83;;;;;;;17.91;64.31;101642.19;5092904;28;20139;-48
2022/08/02 05:30:08;;;;;;;9.18;4.05;;;;;;;17.89;64.44;101628.69;5082214;28;20127;-48
2022/08/02 05:32:47;;;;;;;12.23;4.45;;;;;;;17.87;64.83;101636.44;5091233;28;20055;-52
2022/08/02 05:35:20;;;;;;;9.45;4.07;;;;;;;17.86;65.24;101637.56;4387693;28;10000028;-54
2022/08/02 05:37:49;;;;;;;9.88;4.20;;;;;;;17.86;65.59;101629.28;5088581;28;20047;-50
2022/08/02 05:40:17;;;;;;;9.45;3.88;;;;;;;17.92;65.60;101628.13;5073465;28;20040;-54
2022/08/02 05:42:53;;;;;;;9.88;4.55;;;;;;;17.97;65.89;101619.75;5090298;28;20055;-51
2022/08/02 05:45:21;;;;;;;9.73;3.90;;;;;;;18.01;66.10;101615.25;5089749;28;20151;-50
2022/08/02 05:47:49;;;;;;;12.25;4.43;;;;;;;18.07;66.28;101610.50;5072715;28;20075;-52
2022/08/02 05:50:17;;;;;;;8.60;3.83;;;;;;;18.08;66.22;101615.72;5081642;28;20036;-53
2022/08/02 05:52:55;;;;;;;11.20;4.78;;;;;;;18.09;66.84;101619.31;5090296;28;20043;-55
2022/08/02 05:55:26;;;;;;;10.48;4.47;;;;;;;18.07;67.36;101624.31;5080663;28;20510;-50
2022/08/02 05:58:02;;;;;;;8.15;4.45;;;;;;;18.07;67.53;101635.34;5090443;28;20054;-49
2022/08/02 06:00:31;;;;;;;14.38;5.13;;;;;;;18.08;68.29;101625.94;5042243;28;20402;-51
2022/08/02 06:03:04;;;;;;;13.05;4.95;;;;;;;18.08;68.93;101631.44;5075305;28;20089;-55
2022/08/02 06:05:39;;;;;;;10.77;4.68;;;;;;;18.09;68.95;101633.91;5087986;28;20036;-52
2022/08/02 06:08:09;;;;;;;11.10;4.45;;;;;;;18.10;69.65;101638.31;5085615;28;20401;-56
2022/08/02 06:10:37;;;;;;;12.13;5.65;;;;;;;18.12;70.35;101638.00;5088184;28;20049;-54
2022/08/02 06:13:13;;;;;;;12.43;5.00;;;;;;;18.10;70.97;101640.25;5082006;28;20052;-51
2022/08/02 06:15:41;;;;;;;13.13;5.28;;;;;;;18.08;71.80;101639.72;5089476;28;20048;-56
2022/08/02 06:18:21;;;;;;;12.45;5.22;;;;;;;18.09;72.51;101631.16;5089714;28;20083;-54
2022/08/02 06:21:02;;;;;;;13.98;4.90;;;;;;;18.13;72.63;101642.41;5089411;28;20151;-52
2022/08/02 06:23:50;;;;;;;11.73;5.57;;;;;;;18.16;73.26;101638.22;5088593;28;20124;-52
2022/08/02 06:26:29;;;;;;;9.38;4.60;;;;;;;18.18;73.39;101636.81;5081347;28;20857;-56
2022/08/02 06:28:58;;;;;;;12.13;5.45;;;;;;;18.23;74.39;101634.00;5075447;28;20036;-52
2022/08/02 06:31:25;;;;;;;9.90;5.50;;;;;;;18.26;74.60;101627.88;5087184;28;20036;-48
2022/08/02 06:33:53;;;;;;;11.50;5.65;;;;;;;18.29;74.73;101621.72;5090307;28;20032;-51
2022/08/02 06:36:39;;;;;;;10.23;4.88;;;;;;;18.29;74.96;101618.97;5066281;28;20509;-49
2022/08/02 06:39:22;;;;;;;13.07;4.93;;;;;;;18.33;75.11;101621.13;5085307;28;20466;-51
2022/08/02 06:41:51;;;;;;;10.30;5.57;;;;;;;18.37;75.33;101627.69;5089148;28;20751;-51
2022/08/02 06:44:24;;;;;;;6.80;4.10;;;;;;;18.43;74.66;101627.31;5089241;28;20034;-54
2022/08/02 06:47:11;;;;;;;7.25;4.22;;;;;;;18.52;74.39;101627.44;5078763;28;20040;-51
2022/08/02 06:49:40;;;;;;;9.65;5.28;;;;;;;18.59;74.76;101630.66;5083132;28;20045;-50
2022/08/02 06:52:29;;;;;;;11.10;5.43;;;;;;;18.65;74.54;101629.41;5082824;28;20044;-57
2022/08/02 06:54:59;;;;;;;11.75;5.10;;;;;;;18.71;74.91;101621.84;5082016;28;20055;-51
2022/08/02 06:57:27;;;;;;;13.65;5.97;;;;;;;18.74;74.81;101622.09;5085897;28;20054;-50
2022/08/02 06:59:57;;;;;;;12.32;5.88;;;;;;;18.79;75.10;101614.88;5085889;28;20052;-50
2022/08/02 07:02:24;;;;;;;40.97;12.40;;;;;;;18.84;74.57;101615.59;5079046;28;20044;-49
2022/08/02 07:04:52;;;;;;;25.38;8.15;;;;;;;18.91;74.88;101616.00;5087705;28;20058;-50
2022/08/02 07:07:20;;;;;;;21.20;7.22;;;;;;;18.96;74.83;101620.59;5077149;28;20041;-53
2022/08/02 07:09:48;;;;;;;21.55;8.52;;;;;;;19.00;74.51;101613.34;5077398;28;20155;-51
2022/08/02 07:12:31;;;;;;;19.13;7.30;;;;;;;19.07;74.43;101613.78;5079540;28;20068;-56
2022/08/02 07:15:05;;;;;;;13.27;6.28;;;;;;;19.12;74.44;101621.97;5089177;28;20604;-55
2022/08/02 07:17:33;;;;;;;12.85;6.18;;;;;;;19.16;74.97;101624.91;5085947;28;20044;-53
2022/08/02 07:20:01;;;;;;;12.73;6.03;;;;;;;19.22;74.67;101626.47;5088832;28;20048;-49
2022/08/02 07:22:29;;;;;;;11.52;5.22;;;;;;;19.28;74.77;101624.41;5085250;28;20110;-49
2022/08/02 07:24:58;;;;;;;13.68;6.88;;;;;;;19.31;75.02;101621.00;5087266;28;20044;-52
2022/08/02 07:27:26;;;;;;;11.43;5.55;;;;;;;19.28;75.25;101625.22;5078089;28;20388;-49
2022/08/02 07:29:54;;;;;;;10.75;6.35;;;;;;;19.30;75.31;101622.97;5088381;28;20040;-53
2022/08/02 07:32:30;;;;;;;12.07;5.95;;;;;;;19.33;75.56;101621.53;5083075;28;20518;-55
2022/08/02 07:34:59;;;;;;;13.35;6.15;;;;;;;19.35;75.89;101616.53;5083289;28;20070;-51
2022/08/02 07:37:34;;;;;;;13.68;7.68;;;;;;;19.37;76.77;101608.75;5084273;28;20052;-50
2022/08/02 07:40:22;;;;;;;13.65;7.03;;;;;;;19.35;77.57;101606.28;5072710;28;20033;-52
2022/08/02 07:42:52;;;;;;;9.93;6.75;;;;;;;19.34;78.14;101607.41;5075527;28;20053;-52
2022/08/02 07:45:29;;;;;;;12.35;5.85;;;;;;;19.40;76.84;101601.78;5075174;28;20156;-52
2022/08/02 07:47:57;;;;;;;9.68;5.22;;;;;;;19.45;77.44;101604.44;5081077;28;20046;-51
2022/08/02 07:50:26;;;;;;;10.90;5.85;;;;;;;19.51;77.17;101603.22;5085264;28;20058;-51
2022/08/02 07:52:54;;;;;;;8.57;5.03;;;;;;;19.56;77.17;101598.38;5082826;28;20048;-51
2022/08/02 07:55:25;;;;;;;10.07;5.82;;;;;;;19.63;76.76;101609.03;5078536;28;20063;-51
2022/08/02 07:58:08;;;;;;;12.10;6.65;;;;;;;19.71;78.29;101615.78;5083155;28;20045;-50
2022/08/02 08:00:40;;;;;;;10.82;5.43;;;;;;;19.73;77.22;101608.00;5087993;28;20055;-50
2022/08/02 08:03:08;;;;;;;11.63;5.05;;;;;;;19.76;76.69;101597.13;5084740;28;20032;-50
2022/08/02 08:05:36;;;;;;;8.65;5.30;;;;;;;19.82;77.13;101605.31;5083459;28;20525;-50
2022/08/02 08:08:04;;;;;;;11.35;5.57;;;;;;;19.86;77.64;101604.38;5080316;28;20040;-51
2022/08/02 08:10:32;;;;;;;10.68;4.72;;;;;;;19.92;76.56;101600.38;5079203;28;20498;-50
2022/08/02 08:13:00;;;;;;;11.65;4.93;;;;;;;19.99;76.21;101595.22;5079565;28;20067;-48
2022/08/02 08:15:27;;;;;;;11.60;5.32;;;;;;;20.06;75.89;101588.41;5084243;28;20040;-50
2022/08/02 08:17:55;;;;;;;9.75;5.47;;;;;;;20.08;76.22;101592.50;5064848;28;20039;-49
2022/08/02 08:20:23;;;;;;;11.00;5.40;;;;;;;20.12;75.79;101593.53;5089123;28;20454;-53
2022/08/02 08:22:51;;;;;;;9.73;5.30;;;;;;;20.17;75.91;101587.06;5091523;28;20055;-51
2022/08/02 08:25:19;;;;;;;12.45;5.32;;;;;;;20.17;76.59;101585.09;5088651;28;20029;-51
2022/08/02 08:27:50;;;;;;;11.00;5.55;;;;;;;20.21;76.10;101591.66;5087665;28;20048;-49
2022/08/02 08:30:19;;;;;;;9.52;4.75;;;;;;;20.24;76.96;101584.66;5092430;28;20044;-52
2022/08/02 08:32:47;;;;;;;9.50;4.07;;;;;;;20.29;76.61;101587.28;5091487;28;20040;-50
2022/08/02 08:35:15;;;;;;;8.05;4.47;;;;;;;20.31;76.22;101587.81;5090203;28;20036;-53
2022/08/02 08:37:43;;;;;;;8.75;4.00;;;;;;;20.34;75.72;101583.59;5077402;28;20143;-51
2022/08/02 08:40:11;;;;;;;8.18;4.32;;;;;;;20.36;74.74;101587.66;5083558;28;20185;-51
2022/08/02 08:42:39;;;;;;;6.35;3.17;;;;;;;20.41;74.44;101589.50;5091526;28;20040;-49
2022/08/02 08:45:08;;;;;;;6.75;3.50;;;;;;;20.45;73.72;101581.38;5092596;28;20115;-49
2022/08/02 08:47:40;;;;;;;5.70;3.33;;;;;;;20.50;73.47;101589.56;5084099;28;20060;-52
2022/08/02 08:50:10;;;;;;;6.95;3.03;;;;;;;20.56;72.40;101591.06;5084658;28;20052;-50
2022/08/02 08:52:53;;;;;;;5.55;2.95;;;;;;;20.60;70.95;101594.84;5095077;28;20047;-50
2022/08/02 08:55:25;;;;;;;6.10;3.10;;;;;;;20.64;70.18;101587.56;5095534;28;20032;-52
2022/08/02 08:57:54;;;;;;;8.10;3.13;;;;;;;20.67;69.52;101589.69;5094243;28;20036;-53
2022/08/02 09:00:22;;;;;;;6.93;3.20;;;;;;;20.70;69.81;101591.00;5078559;28;20052;-52
2022/08/02 09:02:50;;;;;;;6.82;3.50;;;;;;;20.75;70.51;101591.66;5096737;28;20071;-52
2022/08/02 09:05:17;;;;;;;8.02;2.95;;;;;;;20.78;70.05;101591.03;5096652;28;20427;-53
2022/08/02 09:07:50;;;;;;;6.18;3.50;;;;;;;20.80;69.55;101591.53;5085903;28;20040;-52
2022/08/02 09:10:36;;;;;;;4.15;2.80;;;;;;;20.82;68.49;101589.25;5091651;28;20046;-57
2022/08/02 09:13:19;;;;;;;5.28;2.78;;;;;;;20.83;68.23;101585.38;5088118;28;20053;-53
2022/08/02 09:16:07;;;;;;;5.78;2.60;;;;;;;20.88;68.39;101592.72;5084167;28;20051;-54
2022/08/02 09:18:44;;;;;;;11.52;2.95;;;;;;;20.93;67.14;101580.69;5094390;28;20081;-49
2022/08/02 09:21:15;;;;;;;4.30;2.65;;;;;;;20.97;66.78;101589.97;5094029;28;20056;-50
2022/08/02 09:23:45;;;;;;;4.82;2.65;;;;;;;21.01;65.32;101585.44;5088577;28;20040;-49
2022/08/02 09:26:18;;;;;;;4.15;2.50;;;;;;;21.05;63.68;101591.97;5093836;28;20123;-53
2022/08/02 09:28:51;;;;;;;4.70;2.60;;;;;;;21.07;64.05;101589.69;5094589;28;20044;-48
2022/08/02 09:31:21;;;;;;;4.32;2.60;;;;;;;21.13;63.98;101584.81;5093303;28;20086;-51
2022/08/02 09:33:57;;;;;;;7.60;2.70;;;;;;;21.17;63.38;101581.09;5091153;28;20040;-53
2022/08/02 09:36:26;;;;;;;4.50;2.40;;;;;;;21.23;61.94;101581.75;5094676;28;20044;-52
2022/08/02 09:39:00;;;;;;;3.90;2.00;;;;;;;21.27;62.22;101578.00;5087812;28;20075;-51
2022/08/02 09:41:29;;;;;;;4.28;2.00;;;;;;;21.31;63.42;101577.34;5093091;28;20403;-52
2022/08/02 09:43:59;;;;;;;3.35;1.90;;;;;;;21.38;61.01;101583.25;5092601;28;20044;-51
2022/08/02 09:46:38;;;;;;;3.38;1.63;;;;;;;21.42;61.47;101575.97;5094329;28;20043;-50
2022/08/02 09:49:07;;;;;;;2.28;1.80;;;;;;;21.47;62.12;101581.34;5089775;28;20036;-53
2022/08/02 09:51:56;;;;;;;3.42;2.08;;;;;;;21.53;57.70;101580.06;5091181;28;20410;-50
2022/08/02 09:54:27;;;;;;;3.67;2.40;;;;;;;21.58;57.47;101581.88;5082962;28;20043;-50
2022/08/02 09:56:57;;;;;;;7.85;2.10;;;;;;;21.62;56.28;101588.38;5089292;28;20032;-52
2022/08/02 09:59:25;;;;;;;3.03;1.90;;;;;;;21.68;55.39;101593.44;5077306;28;20066;-51
2022/08/02 10:01:54;;;;;;;3.50;2.25;;;;;;;21.71;56.13;101586.44;5093472;28;20135;-54
2022/08/02 10:04:31;;;;;;;4.53;2.05;;;;;;;21.73;56.23;101583.34;5090591;28;20454;-55
2022/08/02 10:07:04;;;;;;;6.03;2.10;;;;;;;21.80;53.83;101589.22;5093448;28;20528;-53
2022/08/02 10:09:33;;;;;;;4.15;2.10;;;;;;;21.86;53.69;101591.53;5093435;28;20093;-50
2022/08/02 10:12:01;;;;;;;2.85;2.13;;;;;;;21.90;54.13;101591.66;5092778;28;20478;-49
2022/08/02 10:14:33;;;;;;;4.18;2.13;;;;;;;21.94;53.16;101587.09;5090359;28;20044;-50
2022/08/02 10:17:03;;;;;;;2.40;2.20;;;;;;;21.98;53.28;101588.06;5082210;28;20081;-50
2022/08/02 10:19:34;;;;;;;5.10;2.53;;;;;;;22.05;52.11;101576.47;5094049;28;20048;-50
2022/08/02 10:22:22;;;;;;;2.92;2.03;;;;;;;22.15;50.15;101578.09;5086207;28;20051;-51
2022/08/02 10:24:50;;;;;;;2.50;2.15;;;;;;;22.20;52.56;101580.69;5093217;28;20047;-51
2022/08/02 10:27:19;;;;;;;3.60;2.20;;;;;;;22.20;51.33;101576.03;5093196;28;20043;-51
2022/08/02 10:29:49;;;;;;;3.83;2.25;;;;;;;22.25;51.34;101575.03;5091589;28;20032;-52
2022/08/02 10:32:40;;;;;;;3.67;2.20;;;;;;;22.25;53.77;101567.50;5086680;28;20440;-54
2022/08/02 10:35:10;;;;;;;2.97;1.95;;;;;;;22.25;54.09;101561.97;5093876;28;20032;-51
2022/08/02 10:37:57;;;;;;;4.95;2.42;;;;;;;22.29;52.91;101564.88;5081101;28;20048;-49
2022/08/02 10:40:28;;;;;;;2.97;2.03;;;;;;;22.35;52.58;101565.53;4386557;28;10000280;-53
2022/08/02 10:42:59;;;;;;;2.30;1.80;;;;;;;22.38;50.74;101567.66;5089489;28;20101;-52
2022/08/02 10:45:28;;;;;;;6.00;2.38;;;;;;;22.46;50.78;101566.81;5089298;28;20141;-51
2022/08/02 10:48:13;;;;;;;3.80;2.03;;;;;;;22.45;51.48;101566.00;5084626;28;20115;-51
2022/08/02 10:50:46;;;;;;;5.13;1.80;;;;;;;22.45;51.72;101570.75;5090734;28;20614;-52
2022/08/02 10:53:22;;;;;;;3.85;1.98;;;;;;;22.54;50.38;101577.91;5090478;28;20106;-52
2022/08/02 10:55:51;;;;;;;5.18;2.13;;;;;;;22.63;48.86;101571.50;5089913;28;20075;-51
2022/08/02 10:58:23;;;;;;;4.70;1.73;;;;;;;22.64;48.38;101568.41;5082766;28;20283;-51
2022/08/02 11:00:56;;;;;;;5.97;2.15;;;;;;;22.70;47.88;101566.22;5089459;28;20043;-52
2022/08/02 11:03:33;;;;;;;3.40;1.45;;;;;;;22.76;48.02;101578.81;5089462;28;20166;-52
2022/08/02 11:06:13;;;;;;;4.03;2.03;;;;;;;22.77;48.33;101563.75;5089703;28;20044;-51
2022/08/02 11:09:32;;;;;;;3.83;1.65;;;;;;;22.82;48.00;101566.34;5088539;28;20036;-53
2022/08/02 11:12:08;;;;;;;4.30;1.75;;;;;;;22.87;46.52;101560.59;5090426;28;20036;-54
2022/08/02 11:14:38;;;;;;;4.35;1.70;;;;;;;22.92;45.77;101557.66;5090662;28;20436;-52
2022/08/02 11:17:07;;;;;;;2.08;1.58;;;;;;;22.96;45.74;101555.81;5062853;28;20064;-51
2022/08/02 11:20:07;;;;;;;1.67;1.55;;;;;;;23.00;45.38;101561.56;5087759;28;20047;-54
2022/08/02 11:22:35;;;;;;;5.53;1.83;;;;;;;23.08;44.76;101548.78;5089731;28;20036;-55
2022/08/02 11:25:21;;;;;;;3.63;1.45;;;;;;;23.14;45.15;101561.34;5089717;28;20042;-56
2022/08/02 11:27:56;;;;;;;2.53;1.52;;;;;;;23.21;44.19;101564.41;5088302;28;20123;-51
2022/08/02 11:30:25;;;;;;;3.72;1.85;;;;;;;23.25;44.15;101565.34;5090779;28;20097;-49
2022/08/02 11:32:58;;;;;;;3.55;1.73;;;;;;;23.24;44.62;101557.38;5090340;28;20517;-51
2022/08/02 11:35:46;;;;;;;2.47;1.60;;;;;;;23.24;44.75;101555.38;5093042;28;20051;-52
2022/08/02 11:38:21;;;;;;;7.60;1.80;;;;;;;23.27;43.32;101557.50;5091094;28;20046;-55
2022/08/02 11:40:49;;;;;;;4.47;1.20;;;;;;;23.28;43.23;101556.34;5093816;28;20498;-54
2022/08/02 11:43:29;;;;;;;3.03;1.65;;;;;;;23.30;42.83;101540.13;5092667;28;20040;-54
2022/08/02 11:45:57;;;;;;;2.88;1.88;;;;;;;23.32;42.11;101554.50;5081633;28;20041;-55
2022/08/02 11:48:36;;;;;;;2.05;1.55;;;;;;;23.36;43.04;101549.91;5057538;28;20047;-51